Olmos, Texas
Current Conditions -  °F | °C
As of 7:35 PM on Sunday 23 Nov 2014 (Local Time) from KBEA Reporting Station
Clear Clear  
Wind Chill: 70°   Ceiling: Unl
Heat Index: 70°   Visibility: 10mi
Dew Point: 46°   Wind: 5mph
Humidity: 43%   Direction: 240°WSW
Pressure: 29.66"   Gusts: NA
Location:  28.2201°N, 97.6762°W
Report Text: KBEA 240135Z AUTO 24004KT 10SM CLR 21/08 A2966 RMK AO2 T02120080
Loading
Personal Weather Stations






























Interactive Weather Map New forecast layout! Learn more

10-Day Weather Forecast

Advertisements
Track Severe Weather on mobile